Disclaimer

Please do not use the information listed here in-flight or in-navigation, as they are not provided to us by the airports but are provided by volunteers, so they might be outdated.

Search


Regions


Airport information page

Radio informations:
MF - 122.2 MHz
WINNIPEG RDO - 126.7 MHz
VHF/DF - 122.2 MHz
RDO - 122.2 MHz
WINNIPEG CNTR - 124.0 MHz

Airport informations:
Latitude: 49° 47' 18.00" N
Longitude: 094° 21' 47.00" W
Elevation: 1332 feet - 406 meters
Operating hours: N/A
Operating agency: Municipal
Timezone: Second Sunday in March at 0200 to first Sunday in November at 0200 local time (Exception Arizona and that portion of Indiana in the Eastern Time Zone)
Fuel: Jet A1, without icing nhibitor.

100/130 MIL Spec, low lead, aviation gasoline (BLUE)

Runway information:
08/26 - 5800 x 150 feet< - >1768 x 46 meters

Recent METARs:
CYQK 181700Z 36005KT 280V020 6SM -SN BKN015 OVC029 M11/M15 A3000 RMK SC5SC3 SLP193
CYQK 181700Z 36005KT 280V020 6SM -SN BKN015 OVC029 M11/M15 A3000 RMK SC5SC3 SLP193
CYQK 181800Z 32004KT 10SM -SN SCT016 OVC026 M11/M16 A3000 RMK SC4SC4 SLP193

Airport on the map: